Terminal Aerodrome Forecast
Issued by NWS Rapid City, SD

Home | Current Version | Previous Version | Text Only | Print | Product List | Glossary Off
Versions: 1 2 3 4 5 6 7 8 9 10 11 12 13 14 15 16 17 18 19 20 21 22 23 24 25 26 27 28 29 30 31 32 33

998
FTUS43 KUNR 210520
TAFRAP
TAF
KRAP 210520Z 2106/2206 04017KT P6SM -RA OVC040
     FM210800 06015KT 3SM -RASN OVC015
     FM211000 08011KT 1SM -SN OVC008
     FM211500 10013KT 4SM -SN OVC003
     FM211800 11013KT P6SM OVC007
     FM212300 14012KT P6SM OVC015=

USA.gov is the U.S. government's official web portal to all federal, state and local government web resources and services.